createdAt,value
2024-02-01T00:02:27.953Z,82.68
2024-02-01T00:07:30.034Z,82.93
2024-02-01T00:12:31.983Z,83.43
2024-02-01T00:17:33.963Z,83.83
2024-02-01T00:22:36.113Z,83.81
2024-02-01T00:27:38.020Z,84.00
2024-02-01T00:32:40.040Z,84.27
2024-02-01T00:37:42.540Z,84.42
2024-02-01T00:42:44.496Z,84.23
2024-02-01T00:47:49.647Z,83.97
2024-02-01T00:52:51.931Z,83.76
2024-02-01T00:57:54.519Z,83.61
2024-02-01T01:02:56.468Z,83.70
2024-02-01T01:07:58.814Z,83.88
2024-02-01T01:13:00.714Z,83.98
2024-02-01T01:18:03.413Z,83.97
2024-02-01T01:23:07.382Z,83.93
2024-02-01T01:28:09.789Z,83.94
2024-02-01T01:33:11.698Z,84.20
2024-02-01T01:38:13.794Z,84.23
2024-02-01T01:43:15.696Z,84.39
2024-02-01T01:48:17.757Z,84.36
2024-02-01T01:53:19.813Z,84.71
2024-02-01T01:58:22.170Z,85.00
2024-02-01T02:03:28.683Z,85.11
2024-02-01T02:08:31.117Z,85.29
2024-02-01T02:13:33.061Z,85.14
2024-02-01T02:18:35.038Z,85.51
2024-02-01T02:23:37.618Z,85.50
2024-02-01T02:28:40.265Z,85.51
2024-02-01T02:33:42.843Z,85.40
2024-02-01T02:38:44.829Z,85.25
2024-02-01T02:43:46.889Z,85.35
2024-02-01T02:48:48.941Z,85.28
2024-02-01T02:53:51.011Z,85.16
2024-02-01T02:58:53.436Z,85.43
2024-02-01T03:03:55.451Z,85.68
2024-02-01T03:08:57.789Z,85.49
2024-02-01T03:14:00.079Z,85.54
2024-02-01T03:19:02.202Z,85.49
2024-02-01T03:24:05.326Z,85.48
2024-02-01T03:29:07.531Z,85.45
2024-02-01T03:34:12.526Z,85.28
2024-02-01T03:39:23.994Z,85.07
2024-02-01T03:44:26.638Z,85.07
2024-02-01T03:49:29.136Z,84.94
2024-02-01T03:54:32.667Z,84.97
2024-02-01T03:59:35.390Z,84.72
2024-02-01T04:09:40.414Z,84.80
2024-02-01T04:14:42.375Z,84.98
2024-02-01T04:19:44.807Z,85.15
2024-02-01T04:24:46.735Z,84.94
2024-02-01T04:29:48.610Z,84.98
2024-02-01T04:34:50.637Z,84.86
2024-02-01T04:39:52.851Z,84.72
2024-02-01T04:44:59.733Z,84.75
2024-02-01T04:50:03.344Z,84.56
2024-02-01T04:55:08.211Z,84.42
2024-02-01T05:00:15.910Z,84.35
2024-02-01T05:05:18.958Z,84.38
2024-02-01T05:10:21.036Z,84.55
2024-02-01T05:15:23.139Z,84.53
2024-02-01T05:20:26.162Z,84.41
2024-02-01T05:25:28.913Z,84.26
2024-02-01T05:30:31.310Z,84.46
2024-02-01T05:35:35.521Z,84.49
2024-02-01T05:40:40.963Z,84.35
2024-02-01T05:45:42.813Z,84.40
2024-02-01T05:50:44.711Z,84.32
2024-02-01T05:55:53.911Z,84.20
2024-02-01T06:00:56.196Z,84.26
2024-02-01T06:05:58.209Z,84.33
2024-02-01T06:11:00.093Z,84.46
2024-02-01T06:16:02.083Z,84.49
2024-02-01T06:21:04.034Z,84.56
2024-02-01T06:26:06.453Z,84.48
2024-02-01T06:31:14.950Z,84.33
2024-02-01T06:36:16.965Z,84.15
2024-02-01T06:41:29.115Z,84.16
2024-02-01T06:46:54.237Z,83.99
2024-02-01T06:52:04.150Z,83.78
2024-02-01T06:57:14.827Z,83.77
2024-02-01T07:02:36.194Z,83.64
2024-02-01T07:07:48.051Z,83.41
2024-02-01T07:13:08.995Z,83.23
2024-02-01T07:18:17.131Z,82.93
2024-02-01T07:23:23.163Z,82.32
2024-02-01T07:28:47.943Z,82.40
2024-02-01T07:34:08.961Z,82.44
2024-02-01T07:39:29.675Z,82.34
2024-02-01T07:44:50.336Z,82.43
2024-02-01T07:50:11.097Z,82.15
2024-02-01T07:55:31.699Z,81.89
2024-02-01T08:00:35.545Z,81.64
2024-02-01T08:05:57.543Z,81.38
2024-02-01T08:10:59.675Z,81.08
2024-02-01T08:16:04.629Z,80.78
2024-02-01T08:21:15.463Z,80.34
2024-02-01T08:26:17.679Z,80.19
2024-02-01T08:31:19.762Z,79.82
2024-02-01T08:36:21.852Z,79.69
2024-02-01T08:41:23.852Z,79.50
2024-02-01T08:46:25.729Z,78.81
2024-02-01T08:51:27.804Z,78.49
2024-02-01T08:56:38.388Z,77.91
2024-02-01T09:01:40.526Z,77.99
2024-02-01T09:06:42.558Z,77.71
2024-02-01T09:11:44.884Z,77.29
2024-02-01T09:16:47.177Z,76.79
2024-02-01T09:21:49.056Z,77.20
2024-02-01T09:26:51.071Z,77.64
2024-02-01T09:31:57.448Z,77.88
2024-02-01T09:36:59.567Z,78.39
2024-02-01T09:42:13.235Z,78.71
2024-02-01T09:47:16.059Z,78.89
2024-02-01T09:52:18.708Z,79.34
2024-02-01T09:57:20.783Z,79.40
2024-02-01T10:02:23.860Z,79.47
2024-02-01T10:07:25.854Z,79.90
2024-02-01T10:12:27.958Z,79.92
2024-02-01T10:17:31.588Z,80.35
2024-02-01T10:22:34.061Z,80.90
2024-02-01T10:27:42.297Z,81.11
2024-02-01T10:32:47.716Z,81.30
2024-02-01T10:37:53.194Z,81.45
2024-02-01T10:43:00.943Z,81.39
2024-02-01T10:48:09.592Z,81.73
2024-02-01T10:53:16.808Z,81.70
2024-02-01T10:58:20.748Z,82.05
2024-02-01T11:03:28.842Z,82.29
2024-02-01T11:08:34.375Z,82.32
2024-02-01T11:13:36.212Z,82.33
2024-02-01T11:18:48.893Z,82.30
2024-02-01T11:23:51.050Z,82.36
2024-02-01T11:28:54.376Z,82.33
2024-02-01T11:33:56.901Z,82.65
2024-02-01T11:38:58.895Z,82.66
2024-02-01T11:44:01.128Z,82.85
2024-02-01T11:49:03.214Z,82.93
2024-02-01T11:54:05.770Z,83.28
2024-02-01T11:59:08.155Z,83.86
2024-02-01T12:04:10.230Z,83.87
2024-02-01T12:09:15.721Z,83.83
2024-02-01T12:14:22.744Z,83.55
2024-02-01T12:19:25.576Z,83.33
2024-02-01T12:24:28.180Z,83.19
2024-02-01T12:29:30.746Z,83.37
2024-02-01T12:34:37.685Z,83.51
2024-02-01T12:39:41.887Z,83.77
2024-02-01T12:44:44.348Z,83.83
2024-02-01T12:49:46.688Z,83.91
2024-02-01T12:54:48.596Z,84.01
2024-02-01T12:59:50.671Z,84.01
2024-02-01T13:04:54.013Z,84.05
2024-02-01T13:09:56.176Z,84.10
2024-02-01T13:15:07.357Z,83.88
2024-02-01T13:20:23.549Z,83.65
2024-02-01T13:25:26.066Z,83.34
2024-02-01T13:30:28.535Z,83.14
2024-02-01T13:35:32.173Z,82.98
2024-02-01T13:40:34.724Z,82.87
2024-02-01T13:45:36.633Z,82.61
2024-02-01T13:50:39.074Z,82.39
2024-02-01T13:55:40.928Z,82.13
2024-02-01T14:00:51.454Z,82.24
2024-02-01T14:06:00.397Z,82.35
2024-02-01T14:11:02.710Z,82.15
2024-02-01T14:16:08.730Z,82.21
2024-02-01T14:21:10.787Z,82.26
2024-02-01T14:26:12.784Z,82.07
2024-02-01T14:31:15.285Z,81.80
2024-02-01T14:36:18.673Z,81.74
2024-02-01T14:41:21.109Z,81.77
2024-02-01T14:46:22.938Z,81.53
2024-02-01T14:51:24.763Z,81.44
2024-02-01T14:56:26.728Z,81.46
2024-02-01T15:01:29.615Z,81.60
2024-02-01T15:06:32.440Z,81.72
2024-02-01T15:11:34.535Z,81.91
2024-02-01T15:16:36.576Z,81.81
2024-02-01T15:21:40.908Z,81.82
2024-02-01T15:26:44.163Z,82.20
2024-02-01T15:31:48.834Z,82.56
2024-02-01T15:36:50.678Z,82.88
2024-02-01T15:41:59.262Z,82.56
2024-02-01T15:47:01.901Z,82.57
2024-02-01T15:52:05.367Z,82.93
2024-02-01T15:57:07.315Z,83.06
2024-02-01T16:02:10.599Z,83.26
2024-02-01T16:07:12.618Z,83.25
2024-02-01T16:12:20.149Z,83.46
2024-02-01T16:17:22.665Z,83.64
2024-02-01T16:22:47.272Z,83.68
2024-02-01T16:28:04.946Z,83.97
2024-02-01T16:33:21.108Z,84.11
2024-02-01T16:38:26.114Z,84.11
2024-02-01T16:43:41.874Z,84.59
2024-02-01T16:48:44.316Z,84.62
2024-02-01T16:53:48.237Z,84.45
2024-02-01T16:58:57.791Z,84.73
2024-02-01T17:04:00.635Z,84.87
2024-02-01T17:09:05.977Z,84.81
2024-02-01T17:14:30.760Z,84.65
2024-02-01T17:19:38.440Z,84.53
2024-02-01T17:24:40.676Z,84.54
2024-02-01T17:29:45.123Z,84.64
2024-02-01T17:34:47.357Z,84.57
2024-02-01T17:39:49.717Z,84.49
2024-02-01T17:44:51.804Z,84.43
2024-02-01T17:49:54.804Z,84.30
2024-02-01T17:54:57.738Z,84.13
2024-02-01T18:00:00.011Z,83.92
2024-02-01T18:05:02.059Z,83.77
2024-02-01T18:10:09.674Z,83.74
2024-02-01T18:15:37.222Z,83.61
2024-02-01T18:20:39.654Z,83.23
2024-02-01T18:25:42.371Z,83.34
2024-02-01T18:30:44.723Z,83.17
2024-02-01T18:35:57.173Z,83.05
2024-02-01T18:40:59.694Z,82.94
2024-02-01T18:46:03.406Z,82.90
2024-02-01T18:51:07.644Z,82.72
2024-02-01T18:56:29.347Z,82.46
2024-02-01T19:01:36.262Z,82.40
2024-02-01T19:06:41.809Z,82.46
2024-02-01T19:11:46.532Z,82.47
2024-02-01T19:16:50.674Z,82.05
2024-02-01T19:21:53.062Z,81.18
2024-02-01T19:26:57.579Z,80.88
2024-02-01T19:32:00.463Z,80.96
2024-02-01T19:37:02.388Z,81.04
2024-02-01T19:42:05.492Z,80.82
2024-02-01T19:47:07.561Z,80.26
2024-02-01T19:52:09.546Z,80.35
2024-02-01T19:57:11.445Z,80.03
2024-02-01T20:02:14.336Z,79.84
2024-02-01T20:07:16.703Z,79.36
2024-02-01T20:12:18.779Z,79.13
2024-02-01T20:17:21.136Z,79.21
2024-02-01T20:22:23.475Z,78.87
2024-02-01T20:27:25.516Z,78.88
2024-02-01T20:32:30.528Z,78.74
2024-02-01T20:37:33.952Z,78.56
2024-02-01T20:42:35.834Z,78.46
2024-02-01T20:47:41.085Z,78.53
2024-02-01T20:52:43.366Z,79.12
2024-02-01T20:57:48.630Z,78.90
2024-02-01T21:02:53.734Z,78.59
2024-02-01T21:07:56.170Z,78.56
2024-02-01T21:13:15.031Z,78.35
2024-02-01T21:18:20.654Z,78.68
2024-02-01T21:23:27.036Z,78.59
2024-02-01T21:28:29.207Z,78.59
2024-02-01T21:33:31.251Z,78.53
2024-02-01T21:38:33.912Z,78.37
2024-02-01T21:43:37.472Z,78.66
2024-02-01T21:48:40.729Z,78.80
2024-02-01T21:53:44.277Z,78.62
2024-02-01T21:58:47.193Z,78.47
2024-02-01T22:03:49.517Z,78.55
2024-02-01T22:08:55.484Z,78.10
2024-02-01T22:13:57.373Z,77.75
2024-02-01T22:18:59.376Z,78.07
2024-02-01T22:24:01.477Z,78.01
2024-02-01T22:29:03.785Z,77.95
2024-02-01T22:34:05.931Z,77.75
2024-02-01T22:39:17.262Z,77.56
2024-02-01T22:44:20.554Z,77.48
2024-02-01T22:49:22.586Z,77.20
2024-02-01T22:54:25.547Z,76.76
2024-02-01T22:59:28.917Z,75.74
2024-02-01T23:04:30.781Z,75.41
2024-02-01T23:09:33.109Z,75.80
2024-02-01T23:14:35.342Z,74.96
2024-02-01T23:19:37.599Z,75.04
2024-02-01T23:24:42.009Z,73.88
2024-02-01T23:29:43.954Z,74.13
2024-02-01T23:34:46.276Z,74.24
2024-02-01T23:39:48.619Z,74.31
2024-02-01T23:44:50.554Z,73.38
2024-02-01T23:49:52.586Z,72.51
2024-02-01T23:54:56.646Z,73.04
2024-02-01T23:59:58.648Z,73.64
